Time;durP1;ratioP1;P1;durP2;ratioP2;P2;SDS_P1;SDS_P2;PMS_P1;PMS_P2;Temp;Humidity;BMP_temperature;BMP_pressure;BME280_temperature;BME280_humidity;BME280_pressure;Samples;Min_cycle;Max_cycle;Signal;HPM_P1;HPM_P2
2024/01/07 00:02:07;;;;;;;1.53;1.43;;;;;;;-143.84;89.50;45170.94;5110109;28;20519;-58
2024/01/07 00:04:35;;;;;;;1.50;0.93;;;;;;;-143.84;89.25;45144.28;5109879;28;20449;-59
2024/01/07 00:07:02;;;;;;;0.97;0.67;;;;;;;-143.84;88.88;45170.94;5110184;28;20475;-58
2024/01/07 00:09:29;;;;;;;1.00;0.77;;;;;;;-143.84;88.60;45170.94;5110286;28;20921;-58
2024/01/07 00:11:58;;;;;;;1.97;0.87;;;;;;;-143.84;88.31;45176.66;5109899;28;20475;-58
2024/01/07 00:14:25;;;;;;;0.90;0.70;;;;;;;-143.84;88.36;45138.56;5110088;28;20516;-58
2024/01/07 00:16:52;;;;;;;0.80;0.60;;;;;;;-143.84;88.21;45189.97;5110351;28;20435;-59
2024/01/07 00:19:19;;;;;;;0.83;0.60;;;;;;;-143.84;88.50;45159.50;5109804;28;20442;-58
2024/01/07 00:21:46;;;;;;;1.27;1.17;;;;;;;-143.84;88.67;45184.25;5110089;28;20435;-58
2024/01/07 00:24:13;;;;;;;5.33;0.93;;;;;;;-143.84;88.58;45144.28;5110027;28;21310;-58
2024/01/07 00:26:40;;;;;;;1.10;1.00;;;;;;;-143.84;88.15;45142.38;5109738;28;20508;-58
2024/01/07 00:29:09;;;;;;;1.93;1.47;;;;;;;-143.84;88.32;45191.88;5109983;28;21189;-58
2024/01/07 00:31:36;;;;;;;1.37;1.00;;;;;;;-143.84;88.14;45165.22;5109656;28;20483;-58
2024/01/07 00:34:03;;;;;;;0.90;0.77;;;;;;;-143.84;88.39;45155.69;5109245;28;20496;-59
2024/01/07 00:36:30;;;;;;;0.80;0.60;;;;;;;-143.84;88.28;45172.84;5109283;28;20835;-60
2024/01/07 00:38:57;;;;;;;0.80;0.70;;;;;;;-143.84;88.18;45123.34;5109112;28;20960;-60
2024/01/07 00:41:24;;;;;;;0.97;0.87;;;;;;;-143.84;88.00;45136.66;5109119;28;20508;-60
2024/01/07 00:43:52;;;;;;;1.30;1.20;;;;;;;-143.84;87.57;45161.41;5108955;28;20492;-60
2024/01/07 00:46:20;;;;;;;3.33;2.00;;;;;;;-143.84;88.64;45146.19;5109153;28;20499;-60
2024/01/07 00:48:48;;;;;;;1.67;0.97;;;;;;;-143.84;89.42;45150.00;5109141;28;20504;-60
2024/01/07 00:51:15;;;;;;;0.80;0.50;;;;;;;-143.84;90.19;45159.50;5108944;28;20522;-60
2024/01/07 00:53:42;;;;;;;0.80;0.60;;;;;;;-143.84;91.71;45180.47;5108980;28;20442;-60
2024/01/07 00:56:09;;;;;;;1.07;0.97;;;;;;;-143.84;92.52;45157.59;5108894;28;20443;-60
2024/01/07 00:58:37;;;;;;;1.00;0.60;;;;;;;-143.84;92.08;45150.00;5108705;28;20463;-60
2024/01/07 01:01:04;;;;;;;1.10;0.60;;;;;;;-143.84;92.08;45167.13;5108920;28;20439;-60
2024/01/07 01:03:33;;;;;;;1.67;1.23;;;;;;;-143.84;91.97;45170.94;5109053;28;20451;-60
2024/01/07 01:06:00;;;;;;;0.80;0.60;;;;;;;-143.84;91.47;45178.56;5109218;28;20447;-60
2024/01/07 01:08:27;;;;;;;1.10;0.90;;;;;;;-143.84;90.88;45140.47;5108742;28;20435;-60
2024/01/07 01:10:54;;;;;;;0.80;0.50;;;;;;;-143.84;90.52;45169.03;5108688;28;20482;-60
2024/01/07 01:13:21;;;;;;;1.40;1.20;;;;;;;-143.84;90.50;45174.75;5108576;28;20443;-60
2024/01/07 01:15:48;;;;;;;0.80;0.40;;;;;;;-143.84;90.69;45132.84;5108897;28;20431;-59
2024/01/07 01:18:16;;;;;;;1.67;1.00;;;;;;;-143.84;90.76;45155.69;5108922;28;20431;-60
2024/01/07 01:20:44;;;;;;;0.90;0.70;;;;;;;-143.84;90.53;45170.94;5108508;28;20540;-60
2024/01/07 01:23:12;;;;;;;1.13;0.83;;;;;;;-143.84;89.75;45148.09;5108792;28;20454;-60
2024/01/07 01:25:40;;;;;;;0.80;0.60;;;;;;;-143.84;89.68;45186.16;5108284;28;20929;-60
2024/01/07 01:28:07;;;;;;;1.00;0.53;;;;;;;-143.84;89.13;45176.66;5108775;28;20443;-60
2024/01/07 01:30:34;;;;;;;0.90;0.70;;;;;;;-143.84;89.46;45167.13;5108401;28;20535;-60
2024/01/07 01:33:02;;;;;;;1.97;1.67;;;;;;;-143.84;90.24;45165.22;5109073;28;20469;-60
2024/01/07 01:35:29;;;;;;;0.80;0.40;;;;;;;-143.84;90.51;45165.22;5112554;28;21241;-60
2024/01/07 01:37:57;;;;;;;0.80;0.57;;;;;;;-143.84;91.01;45167.13;5112483;28;20439;-60
2024/01/07 01:40:24;;;;;;;0.80;0.40;;;;;;;-143.84;91.52;45176.66;5112225;28;20953;-60
2024/01/07 01:42:51;;;;;;;0.80;0.50;;;;;;;-143.84;91.44;45172.84;5112293;28;20434;-60
2024/01/07 01:45:19;;;;;;;1.43;1.33;;;;;;;-143.84;91.92;45167.13;5112422;28;20446;-60
2024/01/07 01:47:47;;;;;;;0.80;0.50;;;;;;;-143.84;91.99;45121.44;5112449;28;20471;-60
2024/01/07 01:50:14;;;;;;;0.80;0.40;;;;;;;-143.84;91.73;45163.31;5112162;28;20443;-59
2024/01/07 01:52:42;;;;;;;0.90;0.67;;;;;;;-143.84;92.14;45186.16;5112486;28;20438;-60
2024/01/07 01:55:10;;;;;;;4.23;1.50;;;;;;;-143.84;92.17;45167.13;5112629;28;20446;-60
2024/01/07 01:57:40;;;;;;;1.53;1.43;;;;;;;-143.84;92.05;45169.03;5112169;28;20443;-60
2024/01/07 02:00:08;;;;;;;2.70;0.70;;;;;;;-143.84;92.09;45167.13;5112161;28;20434;-60
2024/01/07 02:02:35;;;;;;;0.80;0.50;;;;;;;-143.84;91.77;45148.09;5112243;27;20451;-60
2024/01/07 02:05:03;;;;;;;1.40;1.07;;;;;;;-143.84;91.93;45169.03;5112080;28;20945;-60
2024/01/07 02:07:31;;;;;;;0.80;0.50;;;;;;;-143.84;92.16;45184.25;5111784;28;20495;-60
2024/01/07 02:09:59;;;;;;;0.90;0.67;;;;;;;-143.84;91.77;45151.91;5111361;27;20865;-60
2024/01/07 02:12:27;;;;;;;0.80;0.60;;;;;;;-143.84;91.66;45167.13;5111326;28;20527;-60
2024/01/07 02:14:54;;;;;;;1.03;0.93;;;;;;;-143.84;90.91;45157.59;5111269;28;20583;-60
2024/01/07 02:17:22;;;;;;;0.87;0.67;;;;;;;-143.84;90.32;45184.25;5110933;28;20435;-60
2024/01/07 02:19:49;;;;;;;0.80;0.50;;;;;;;-143.84;90.16;45170.94;5110808;28;20478;-60
2024/01/07 02:22:16;;;;;;;2.03;1.27;;;;;;;-143.84;89.43;45170.94;5111532;27;20435;-60
2024/01/07 02:24:44;;;;;;;0.80;0.57;;;;;;;-143.84;89.16;45138.56;5111600;28;20468;-60
2024/01/07 02:27:12;;;;;;;0.93;0.83;;;;;;;-143.84;88.53;45153.81;5111813;28;20443;-60
2024/01/07 02:29:39;;;;;;;1.30;1.20;;;;;;;-143.84;88.26;45170.94;5111581;28;20439;-60
2024/01/07 02:32:07;;;;;;;1.10;0.80;;;;;;;-143.84;87.52;45163.31;5111396;28;21006;-60
2024/01/07 02:34:34;;;;;;;2.50;1.60;;;;;;;-143.84;87.45;45172.84;5111551;28;20480;-60
2024/01/07 02:37:01;;;;;;;0.90;0.70;;;;;;;-143.84;87.34;45155.69;5111436;28;20547;-60
2024/01/07 02:39:28;;;;;;;0.80;0.50;;;;;;;-143.84;86.88;45153.81;5111621;28;20557;-60
2024/01/07 02:41:56;;;;;;;0.80;0.50;;;;;;;-143.84;86.81;45150.00;5111338;28;21017;-59
2024/01/07 02:44:24;;;;;;;0.90;0.70;;;;;;;-143.84;87.50;45153.81;5110462;28;20451;-60
2024/01/07 02:46:51;;;;;;;0.80;0.73;;;;;;;-143.84;87.20;45153.81;5110436;28;20438;-59
2024/01/07 02:49:18;;;;;;;0.90;0.80;;;;;;;-143.84;87.05;45157.59;5111541;28;20468;-60
2024/01/07 02:51:49;;;;;;;1.20;1.00;;;;;;;-143.84;87.25;45163.31;5111128;28;20474;-60
2024/01/07 02:54:16;;;;;;;1.27;1.17;;;;;;;-143.84;87.16;45148.09;5111097;28;20517;-60
2024/01/07 02:56:43;;;;;;;0.80;0.50;;;;;;;-143.84;87.03;45165.22;5110962;28;20500;-60
2024/01/07 02:59:11;;;;;;;0.90;0.80;;;;;;;-143.84;86.79;45163.31;5110916;28;20489;-60
2024/01/07 03:01:40;;;;;;;0.90;0.73;;;;;;;-143.84;85.95;45188.06;5111019;28;20431;-60
2024/01/07 03:04:07;;;;;;;1.00;0.67;;;;;;;-143.84;85.75;45170.94;5110735;28;20443;-60
2024/01/07 03:06:34;;;;;;;0.87;0.67;;;;;;;-143.84;85.60;45161.41;5110540;28;20482;-60
2024/01/07 03:09:02;;;;;;;1.10;0.60;;;;;;;-143.84;85.83;45150.00;5110704;28;20443;-60
2024/01/07 03:11:30;;;;;;;0.80;0.70;;;;;;;-143.84;86.03;45144.28;5110646;28;20975;-60
2024/01/07 03:13:57;;;;;;;2.03;1.17;;;;;;;-143.84;85.79;45167.13;5110662;28;20523;-60
2024/01/07 03:16:27;;;;;;;1.00;0.90;;;;;;;-143.84;85.96;45146.19;5110720;28;20435;-60
2024/01/07 03:18:54;;;;;;;1.33;1.23;;;;;;;-143.84;85.81;45155.69;5110716;28;20500;-60
2024/01/07 03:21:23;;;;;;;1.40;1.10;;;;;;;-143.84;85.40;45161.41;5110094;28;20560;-60
2024/01/07 03:23:51;;;;;;;1.33;0.90;;;;;;;-143.84;84.89;45184.25;5110452;28;20508;-60
2024/01/07 03:26:20;;;;;;;2.30;2.10;;;;;;;-143.84;84.94;45167.13;5110448;28;20431;-60
2024/01/07 03:28:47;;;;;;;1.93;1.23;;;;;;;-143.84;84.64;45163.31;5110279;28;20447;-60
2024/01/07 03:31:16;;;;;;;3.63;1.60;;;;;;;-143.84;84.44;45148.09;5110502;28;20483;-60
2024/01/07 03:33:45;;;;;;;1.10;1.00;;;;;;;-143.84;84.69;45161.41;5110557;28;20492;-60
2024/01/07 03:36:13;;;;;;;1.30;1.20;;;;;;;-143.84;84.03;45157.59;5110068;28;20443;-60
2024/01/07 03:38:41;;;;;;;1.00;0.90;;;;;;;-143.84;83.95;45130.94;5110156;28;20443;-60
2024/01/07 03:41:09;;;;;;;1.70;1.60;;;;;;;-143.84;83.71;45167.13;5109989;28;20463;-60
2024/01/07 03:43:36;;;;;;;1.50;1.00;;;;;;;-143.84;83.23;45136.66;5110084;28;20452;-59
2024/01/07 03:46:03;;;;;;;1.13;1.03;;;;;;;-143.84;83.28;45157.59;5110030;28;20997;-60
2024/01/07 03:48:30;;;;;;;2.30;1.33;;;;;;;-143.84;82.92;45167.13;5110030;28;20925;-60
2024/01/07 03:50:59;;;;;;;8.23;0.77;;;;;;;-143.84;82.58;45153.81;5109923;28;20435;-60
2024/01/07 03:53:26;;;;;;;1.17;0.80;;;;;;;-143.84;82.01;45155.69;5109781;28;20458;-60
2024/01/07 03:55:53;;;;;;;1.20;1.00;;;;;;;-143.84;82.10;45151.91;5109363;28;20500;-60
2024/01/07 03:58:20;;;;;;;1.40;0.93;;;;;;;-143.84;82.41;45163.31;5110072;28;20427;-60
2024/01/07 04:00:47;;;;;;;2.47;1.23;;;;;;;-143.84;82.15;45186.16;5109671;28;20500;-60
2024/01/07 04:03:14;;;;;;;1.63;0.87;;;;;;;-143.84;81.73;45176.66;5109701;28;20511;-60
2024/01/07 04:05:41;;;;;;;2.40;1.00;;;;;;;-143.84;82.15;45201.41;5109560;28;20496;-60
2024/01/07 04:08:12;;;;;;;1.30;1.20;;;;;;;-143.84;82.02;45144.28;5109616;28;20949;-59
2024/01/07 04:10:39;;;;;;;2.13;1.53;;;;;;;-143.84;81.58;45169.03;5109641;28;20443;-60
2024/01/07 04:13:06;;;;;;;0.90;0.77;;;;;;;-143.84;81.50;45170.94;5109465;28;20539;-60
2024/01/07 04:15:33;;;;;;;4.47;1.37;;;;;;;-143.84;82.01;45155.69;5109462;28;20541;-60
2024/01/07 04:18:03;;;;;;;2.30;1.43;;;;;;;-143.84;81.80;45163.31;5109408;28;20439;-60
2024/01/07 04:20:30;;;;;;;0.87;0.63;;;;;;;-143.84;81.37;45157.59;5109117;28;20487;-60
2024/01/07 04:22:58;;;;;;;1.80;1.70;;;;;;;-143.84;80.84;45155.69;5109449;28;20435;-60
2024/01/07 04:25:26;;;;;;;2.70;1.50;;;;;;;-143.84;80.80;45150.00;5109601;28;20995;-60
2024/01/07 04:27:53;;;;;;;1.93;1.83;;;;;;;-143.84;80.84;45148.09;5109116;28;20443;-60
2024/01/07 04:30:20;;;;;;;1.00;0.73;;;;;;;-143.84;80.53;45151.91;5109253;28;20438;-60
2024/01/07 04:32:48;;;;;;;1.40;1.30;;;;;;;-143.84;80.17;45163.31;5109161;28;20849;-60
2024/01/07 04:35:15;;;;;;;1.37;1.27;;;;;;;-143.84;79.99;45170.94;5109319;28;20491;-60
2024/01/07 04:37:43;;;;;;;3.67;1.43;;;;;;;-143.84;79.63;45161.41;5109001;28;20435;-60
2024/01/07 04:40:11;;;;;;;0.90;0.60;;;;;;;-143.84;79.92;45144.28;5109413;28;20455;-60
2024/01/07 04:42:39;;;;;;;0.80;0.47;;;;;;;-143.84;79.88;45153.81;5109251;28;20504;-60
2024/01/07 04:45:07;;;;;;;1.50;0.87;;;;;;;-143.84;79.53;45142.38;5109269;28;20450;-60
2024/01/07 04:47:35;;;;;;;0.80;0.50;;;;;;;-143.84;79.16;45167.13;5108843;28;20497;-59
2024/01/07 04:50:03;;;;;;;1.07;0.90;;;;;;;-143.84;78.54;45163.31;5109331;28;20841;-60
2024/01/07 04:52:30;;;;;;;0.90;0.77;;;;;;;-143.84;78.20;45155.69;5108858;28;20479;-60
2024/01/07 04:54:57;;;;;;;1.63;1.37;;;;;;;-143.84;77.70;45169.03;5108996;28;20476;-60
2024/01/07 04:57:24;;;;;;;0.90;0.60;;;;;;;-143.84;77.57;45161.41;5109295;28;20526;-60
2024/01/07 04:59:54;;;;;;;2.27;1.60;;;;;;;-143.84;77.16;45153.81;5108957;28;20439;-60
2024/01/07 05:02:21;;;;;;;3.87;3.50;;;;;;;-143.84;77.46;45167.13;5108807;28;20951;-60
2024/01/07 05:04:48;;;;;;;0.90;0.80;;;;;;;-143.84;77.09;45150.00;5108704;28;20488;-59
2024/01/07 05:07:15;;;;;;;1.47;0.90;;;;;;;-143.84;77.29;45165.22;5109150;28;20492;-60
2024/01/07 05:09:42;;;;;;;0.90;0.50;;;;;;;-143.84;77.65;45174.75;5112468;28;20442;-60
2024/01/07 05:12:09;;;;;;;1.20;1.10;;;;;;;-143.84;77.11;45148.09;5112974;28;20537;-60
2024/01/07 05:14:37;;;;;;;1.30;0.63;;;;;;;-143.84;77.42;45163.31;5113173;28;20519;-60
2024/01/07 05:17:05;;;;;;;1.50;1.40;;;;;;;-143.84;77.23;45161.41;5112877;28;20481;-60
2024/01/07 05:19:32;;;;;;;1.03;0.93;;;;;;;-143.84;76.94;45167.13;5112580;28;20894;-60
2024/01/07 05:21:59;;;;;;;0.90;0.60;;;;;;;-143.84;77.11;45197.59;5112952;28;20445;-60
2024/01/07 05:24:26;;;;;;;1.53;1.40;;;;;;;-143.84;76.95;45148.09;5112787;28;20450;-60
2024/01/07 05:26:53;;;;;;;1.40;1.10;;;;;;;-143.84;76.86;45127.13;5112730;28;20441;-60
2024/01/07 05:29:20;;;;;;;1.10;1.00;;;;;;;-143.84;76.61;45178.56;5112687;28;20491;-60
2024/01/07 05:31:47;;;;;;;3.80;1.17;;;;;;;-143.84;76.87;45172.84;5112323;28;20479;-60
2024/01/07 05:34:16;;;;;;;0.90;0.60;;;;;;;-143.84;76.92;45174.75;5112587;28;20431;-59
2024/01/07 05:36:43;;;;;;;1.67;1.33;;;;;;;-143.84;77.06;45167.13;5112586;28;20438;-60
2024/01/07 05:39:10;;;;;;;1.10;0.90;;;;;;;-143.84;77.29;45153.81;5112573;28;20519;-60
2024/01/07 05:41:38;;;;;;;0.90;0.70;;;;;;;-143.84;76.24;45150.00;5112400;28;20431;-59
2024/01/07 05:44:08;;;;;;;1.20;0.90;;;;;;;-143.84;76.34;45159.50;5112634;28;20431;-59
2024/01/07 05:46:35;;;;;;;1.60;1.23;;;;;;;-143.84;76.22;45170.94;5112674;28;20833;-60
2024/01/07 05:49:02;;;;;;;2.90;1.10;;;;;;;-143.84;76.46;45155.69;5110645;28;20445;-59
2024/01/07 05:51:31;;;;;;;2.13;1.43;;;;;;;-143.84;77.70;45148.09;5091737;28;20475;-59
2024/01/07 05:53:58;;;;;;;1.10;1.00;;;;;;;-143.84;77.42;45142.38;5091821;28;20533;-59
2024/01/07 05:56:25;;;;;;;2.80;1.10;;;;;;;-143.84;77.46;45146.19;5091764;28;20949;-59
2024/01/07 05:58:53;;;;;;;0.80;0.60;;;;;;;-143.84;77.51;45174.75;5091716;28;20436;-59
2024/01/07 06:01:21;;;;;;;0.90;0.60;;;;;;;-143.84;77.59;45176.66;5091535;28;20443;-59
2024/01/07 06:03:48;;;;;;;3.17;1.33;;;;;;;-143.84;77.56;45148.09;5091534;28;20841;-59
2024/01/07 06:06:16;;;;;;;1.63;1.13;;;;;;;-143.84;77.36;45157.59;5104897;28;20453;-59
2024/01/07 06:08:45;;;;;;;10.20;2.23;;;;;;;-143.84;78.54;45150.00;5111769;28;20439;-59
2024/01/07 06:11:18;;;;;;;0.90;0.60;;;;;;;-143.84;78.03;45165.22;5112062;28;20438;-59
2024/01/07 06:13:45;;;;;;;1.27;0.93;;;;;;;-143.84;78.14;45150.00;5111718;28;20479;-59
2024/01/07 06:16:12;;;;;;;0.90;0.77;;;;;;;-143.84;77.97;45148.09;5111725;28;20443;-59
2024/01/07 06:18:41;;;;;;;1.00;0.70;;;;;;;-143.84;77.96;45167.13;5111160;28;20986;-59
2024/01/07 06:21:08;;;;;;;1.70;1.00;;;;;;;-143.84;78.15;45174.75;5111664;28;20485;-59
2024/01/07 06:23:35;;;;;;;0.93;0.83;;;;;;;-143.84;78.21;45174.75;5111599;28;20427;-59
2024/01/07 06:26:06;;;;;;;1.10;1.00;;;;;;;-143.84;78.85;45163.31;5111582;28;20937;-59
2024/01/07 06:28:33;;;;;;;1.23;0.73;;;;;;;-143.84;78.76;45163.31;5111556;28;20436;-59
2024/01/07 06:31:04;;;;;;;0.80;0.50;;;;;;;-143.84;79.82;45153.81;5111812;28;20522;-59
2024/01/07 06:33:31;;;;;;;1.00;0.80;;;;;;;-143.84;80.39;45155.69;5111087;28;20478;-59
2024/01/07 06:35:58;;;;;;;0.93;0.83;;;;;;;-143.84;80.50;45178.56;5111325;28;20788;-59
2024/01/07 06:38:25;;;;;;;1.10;1.00;;;;;;;-143.84;80.88;45169.03;5111650;28;20880;-58
2024/01/07 06:40:54;;;;;;;0.80;0.70;;;;;;;-143.84;81.63;45146.19;5111427;28;20870;-59
2024/01/07 06:43:22;;;;;;;1.00;0.90;;;;;;;-143.84;83.24;45161.41;5111081;28;20469;-59
2024/01/07 06:45:49;;;;;;;1.00;0.87;;;;;;;-143.84;84.40;45170.94;5110654;28;20446;-59
2024/01/07 06:48:16;;;;;;;6.60;1.77;;;;;;;-143.84;84.63;45174.75;5110622;28;20481;-58
2024/01/07 06:50:44;;;;;;;1.57;1.47;;;;;;;-143.84;85.18;45163.31;5110540;28;20815;-59
2024/01/07 06:53:11;;;;;;;1.27;1.17;;;;;;;-143.84;85.94;45172.84;5110714;28;20466;-59
2024/01/07 06:55:38;;;;;;;1.93;0.80;;;;;;;-143.84;86.59;45170.94;5111159;28;20459;-58
2024/01/07 06:58:05;;;;;;;1.40;0.90;;;;;;;-143.84;87.07;45178.56;5110936;28;21198;-58
2024/01/07 07:00:34;;;;;;;4.60;1.93;;;;;;;-143.84;87.68;45172.84;5110441;28;20454;-59
2024/01/07 07:03:01;;;;;;;4.83;2.40;;;;;;;-143.84;88.53;45138.56;5110899;28;20439;-59
2024/01/07 07:05:28;;;;;;;3.33;0.80;;;;;;;-143.84;89.25;45170.94;5110811;28;20803;-59
2024/01/07 07:07:55;;;;;;;1.27;1.17;;;;;;;-143.84;89.43;45165.22;5110670;28;20466;-59
2024/01/07 07:10:23;;;;;;;2.33;1.53;;;;;;;-143.84;89.54;45178.56;5110871;28;20492;-59
2024/01/07 07:12:50;;;;;;;1.50;1.40;;;;;;;-143.84;89.23;45170.94;5110825;28;20917;-58
2024/01/07 07:15:17;;;;;;;6.33;1.60;;;;;;;-143.84;88.81;45150.00;5110656;28;20812;-58
2024/01/07 07:17:46;;;;;;;2.20;1.53;;;;;;;-143.84;88.13;45163.31;5110587;28;20492;-59
2024/01/07 07:20:13;;;;;;;3.00;1.67;;;;;;;-143.84;88.05;45169.03;5110523;28;20893;-59
2024/01/07 07:22:41;;;;;;;3.70;1.93;;;;;;;-143.84;87.91;45169.03;5101708;28;20490;-57
2024/01/07 07:25:09;;;;;;;2.50;1.20;;;;;;;-143.84;87.56;45163.31;5091386;28;20444;-56
2024/01/07 07:27:37;;;;;;;6.53;1.83;;;;;;;-143.84;87.06;45207.13;5090959;28;20452;-57
2024/01/07 07:30:05;;;;;;;4.10;2.40;;;;;;;-143.84;86.82;45148.09;5091002;28;20516;-56
2024/01/07 07:32:32;;;;;;;0.97;0.73;;;;;;;-143.84;86.02;45176.66;5090558;28;20483;-57
2024/01/07 07:35:01;;;;;;;1.83;0.90;;;;;;;-143.84;85.11;45184.25;5106517;28;20492;-57
2024/01/07 07:37:28;;;;;;;1.43;1.33;;;;;;;-143.84;84.94;45161.41;5111519;28;20492;-57
2024/01/07 07:39:56;;;;;;;0.80;0.60;;;;;;;-143.84;84.64;45140.47;5111713;28;20462;-57
2024/01/07 07:42:23;;;;;;;1.40;1.07;;;;;;;-143.84;84.81;45165.22;5111045;28;20434;-56
2024/01/07 07:44:50;;;;;;;1.40;1.07;;;;;;;-143.84;85.61;45146.19;5111248;28;20836;-56
2024/01/07 07:47:17;;;;;;;1.10;0.90;;;;;;;-143.84;87.42;45151.91;5111566;28;20431;-56
2024/01/07 07:49:44;;;;;;;0.90;0.80;;;;;;;-143.84;87.93;45163.31;5111097;28;20439;-56
2024/01/07 07:52:14;;;;;;;0.80;0.60;;;;;;;-143.84;88.76;45151.91;5110776;28;20507;-57
2024/01/07 07:54:41;;;;;;;0.87;0.60;;;;;;;-143.84;88.78;45159.50;5111366;28;20451;-57
2024/01/07 07:57:08;;;;;;;1.20;1.10;;;;;;;-143.84;89.32;45167.13;5110629;28;20512;-57
2024/01/07 07:59:35;;;;;;;1.63;1.00;;;;;;;-143.84;89.70;45161.41;5111077;28;20431;-57
2024/01/07 08:02:02;;;;;;;3.20;1.73;;;;;;;-143.84;89.70;45195.69;5110861;28;20476;-56
2024/01/07 08:04:29;;;;;;;1.83;1.47;;;;;;;-143.84;89.35;45167.13;5111304;28;20443;-56
2024/01/07 08:06:57;;;;;;;1.20;1.10;;;;;;;-143.84;89.88;45153.81;5111071;28;20496;-56
2024/01/07 08:09:26;;;;;;;1.03;0.90;;;;;;;-143.84;89.63;45174.75;5110900;28;20446;-56
2024/01/07 08:11:53;;;;;;;2.70;1.43;;;;;;;-143.84;89.75;45167.13;5110457;28;20486;-56
2024/01/07 08:14:20;;;;;;;1.67;0.70;;;;;;;-143.84;89.77;45174.75;5110633;28;20477;-57
2024/01/07 08:16:47;;;;;;;0.90;0.80;;;;;;;-143.84;89.27;45180.47;5110532;28;20431;-57
2024/01/07 08:19:14;;;;;;;0.90;0.60;;;;;;;-143.84;89.83;45148.09;5110229;28;20464;-57
2024/01/07 08:21:41;;;;;;;0.80;0.50;;;;;;;-143.84;89.45;45170.94;5110776;28;20829;-56
2024/01/07 08:24:10;;;;;;;0.80;0.53;;;;;;;-143.84;88.99;45170.94;5110446;28;20446;-56
2024/01/07 08:26:38;;;;;;;0.80;0.50;;;;;;;-143.84;87.44;45151.91;5107679;28;20928;-56
2024/01/07 08:29:06;;;;;;;0.80;0.60;;;;;;;-143.84;87.36;45174.75;5110326;28;20505;-56
2024/01/07 08:31:33;;;;;;;0.80;0.40;;;;;;;-143.84;87.96;45170.94;5110917;28;20427;-56
2024/01/07 08:34:01;;;;;;;2.93;1.10;;;;;;;-143.84;88.25;45170.94;5110662;28;20999;-57
2024/01/07 08:36:29;;;;;;;0.80;0.50;;;;;;;-143.84;88.02;45159.50;5110136;28;20972;-57
2024/01/07 08:38:56;;;;;;;0.97;0.87;;;;;;;-143.84;88.52;45176.66;5109972;28;20434;-56
2024/01/07 08:41:23;;;;;;;1.77;0.70;;;;;;;-143.84;88.64;45170.94;5110102;28;20450;-57
2024/01/07 08:43:52;;;;;;;0.90;0.70;;;;;;;-143.84;89.13;45153.81;5110440;28;20434;-57
2024/01/07 08:46:21;;;;;;;0.80;0.50;;;;;;;-143.84;89.33;45146.19;5110533;28;20430;-56
2024/01/07 08:48:48;;;;;;;0.80;0.63;;;;;;;-143.84;89.84;45178.56;5110082;28;20968;-56
2024/01/07 08:51:15;;;;;;;0.80;0.40;;;;;;;-143.84;90.75;45138.56;5110192;28;20941;-57
2024/01/07 08:53:42;;;;;;;0.97;0.60;;;;;;;-143.84;90.63;45172.84;5109752;28;20480;-56
2024/01/07 08:56:10;;;;;;;0.80;0.40;;;;;;;-143.84;90.49;45169.03;5110168;28;20492;-56
2024/01/07 08:58:37;;;;;;;2.43;0.83;;;;;;;-143.84;90.37;45167.13;5110283;28;20439;-57
2024/01/07 09:01:05;;;;;;;2.60;0.70;;;;;;;-143.84;90.13;45167.13;5110004;28;20437;-56
2024/01/07 09:03:33;;;;;;;0.80;0.47;;;;;;;-143.84;89.24;45163.31;5110071;28;20436;-56
2024/01/07 09:06:00;;;;;;;1.07;0.97;;;;;;;-143.84;88.97;45157.59;5109879;28;20559;-56
2024/01/07 09:08:27;;;;;;;1.07;0.60;;;;;;;-143.84;88.23;45195.69;5109675;28;20427;-57
2024/01/07 09:10:54;;;;;;;0.80;0.43;;;;;;;-143.84;86.51;45155.69;5109460;28;20798;-57
2024/01/07 09:13:21;;;;;;;0.90;0.50;;;;;;;-143.84;83.77;45150.00;5109720;28;20463;-56
2024/01/07 09:15:48;;;;;;;0.80;0.40;;;;;;;-143.84;83.56;45163.31;5110024;28;20507;-57
2024/01/07 09:18:17;;;;;;;0.80;0.40;;;;;;;-143.84;82.47;45144.28;5109854;28;20442;-56
2024/01/07 09:20:44;;;;;;;0.80;0.50;;;;;;;-143.84;82.26;45136.66;5109715;28;20479;-56
2024/01/07 09:23:11;;;;;;;2.40;0.90;;;;;;;-143.84;82.47;45146.19;5109732;28;20431;-56
2024/01/07 09:25:39;;;;;;;2.23;1.60;;;;;;;-143.84;83.08;45148.09;5108929;28;20450;-56
2024/01/07 09:28:06;;;;;;;0.80;0.50;;;;;;;-143.84;83.58;45178.56;5110949;28;20526;-56
2024/01/07 09:30:33;;;;;;;0.80;0.40;;;;;;;-143.84;84.71;45167.13;5112958;28;20563;-57
2024/01/07 09:33:01;;;;;;;1.47;1.20;;;;;;;-143.84;85.18;45146.19;5109498;28;20474;-56
2024/01/07 09:35:29;;;;;;;0.90;0.80;;;;;;;-143.84;85.98;45140.47;5109880;28;21174;-57
2024/01/07 09:37:56;;;;;;;0.80;0.60;;;;;;;-143.84;87.41;45182.38;5109384;28;20447;-56
2024/01/07 09:40:24;;;;;;;0.80;0.50;;;;;;;-143.84;87.50;45144.28;5109051;28;20894;-56
2024/01/07 09:42:51;;;;;;;0.80;0.50;;;;;;;-143.84;87.99;45167.13;5109700;28;20458;-56
2024/01/07 09:45:19;;;;;;;0.80;0.40;;;;;;;-143.84;88.88;45186.16;5109547;28;20438;-57
2024/01/07 09:47:47;;;;;;;0.80;0.43;;;;;;;-143.84;89.35;45169.03;5109937;28;20427;-56
2024/01/07 09:50:14;;;;;;;2.07;1.63;;;;;;;-143.84;89.15;45150.00;5109478;28;20525;-55
2024/01/07 09:52:45;;;;;;;0.80;0.50;;;;;;;-143.84;89.43;45144.28;5109149;28;20469;-56
2024/01/07 09:55:18;;;;;;;3.03;1.27;;;;;;;-143.84;90.28;45167.13;5111152;28;20919;-56
2024/01/07 09:57:45;;;;;;;11.97;1.60;;;;;;;-143.84;90.61;45150.00;5113115;28;20492;-56
2024/01/07 10:00:14;;;;;;;0.80;0.70;;;;;;;-143.84;90.54;45193.78;5112713;28;20430;-56
2024/01/07 10:02:41;;;;;;;2.00;1.83;;;;;;;-143.84;90.38;45189.97;5113424;28;20506;-56
2024/01/07 10:05:09;;;;;;;0.80;0.40;;;;;;;-143.84;91.01;45159.50;5112694;28;20441;-56
2024/01/07 10:07:36;;;;;;;1.97;1.77;;;;;;;-143.84;90.41;45188.06;5112284;28;20431;-56
2024/01/07 10:10:14;;;;;;;0.80;0.40;;;;;;;-143.84;90.90;45161.41;5112469;28;20502;-56
2024/01/07 10:12:42;;;;;;;0.80;0.50;;;;;;;-143.84;91.36;45170.94;5113222;28;20824;-56
2024/01/07 10:15:10;;;;;;;0.93;0.83;;;;;;;-143.84;92.04;45178.56;5112478;28;20474;-56
2024/01/07 10:17:38;;;;;;;0.80;0.40;;;;;;;-143.84;91.67;45170.94;5113175;28;20611;-56
2024/01/07 10:20:09;;;;;;;0.80;0.50;;;;;;;-143.84;92.06;45195.69;5112470;28;20478;-56
2024/01/07 10:22:37;;;;;;;1.10;0.80;;;;;;;-143.84;91.78;45186.16;5112154;28;20439;-57
2024/01/07 10:25:06;;;;;;;0.80;0.50;;;;;;;-143.84;91.61;45203.31;5112079;28;20438;-56
2024/01/07 10:27:37;;;;;;;1.00;0.60;;;;;;;-143.84;90.94;45172.84;5112639;28;20443;-56
2024/01/07 10:30:06;;;;;;;0.80;0.63;;;;;;;-143.84;90.93;45203.31;5113307;28;20436;-56
2024/01/07 10:32:33;;;;;;;0.80;0.40;;;;;;;-143.84;91.21;45163.31;5112307;28;20445;-56
2024/01/07 10:35:05;;;;;;;1.20;0.60;;;;;;;-143.84;90.82;45167.13;5112332;28;20482;-56
2024/01/07 10:37:33;;;;;;;0.80;0.50;;;;;;;-143.84;90.62;45153.81;5111975;28;20454;-56
2024/01/07 10:40:03;;;;;;;0.90;0.63;;;;;;;-143.84;90.13;45180.47;5111867;28;20451;-56
2024/01/07 10:42:32;;;;;;;1.20;0.70;;;;;;;-143.84;90.11;45167.13;5112266;28;20817;-56
2024/01/07 10:45:01;;;;;;;0.80;0.50;;;;;;;-143.84;89.88;45163.31;5091901;28;20503;-56
2024/01/07 10:47:31;;;;;;;0.80;0.50;;;;;;;-143.84;89.51;45188.06;5091575;28;20448;-56
2024/01/07 10:50:00;;;;;;;1.77;1.10;;;;;;;-143.84;89.87;45157.59;5108732;28;20431;-57
2024/01/07 10:52:28;;;;;;;0.80;0.50;;;;;;;-143.84;89.72;45178.56;5109929;28;20542;-57
2024/01/07 10:54:58;;;;;;;0.80;0.43;;;;;;;-143.84;88.59;45178.56;5110857;28;21125;-56
2024/01/07 10:57:41;;;;;;;1.07;0.77;;;;;;;-143.84;88.19;45172.84;5111668;27;20420;-55
2024/01/07 11:00:18;;;;;;;14.10;1.33;;;;;;;-143.84;88.04;45165.22;5099908;28;20434;-56
2024/01/07 11:02:52;;;;;;;1.53;0.87;;;;;;;-143.84;87.02;45129.03;5111648;27;20438;-56
2024/01/07 11:05:32;;;;;;;2.90;2.60;;;;;;;-143.84;83.95;45153.81;5110751;28;20476;-57
2024/01/07 11:08:08;;;;;;;0.80;0.40;;;;;;;-143.84;84.97;45188.06;5111391;28;20431;-57
2024/01/07 11:10:43;;;;;;;0.80;0.40;;;;;;;-143.84;87.30;45142.38;5109933;28;20465;-60
2024/01/07 11:13:10;;;;;;;0.80;0.40;;;;;;;-143.84;85.82;45159.50;5111164;28;20459;-56
2024/01/07 11:15:54;;;;;;;1.00;0.50;;;;;;;-143.84;85.54;45172.84;5110908;28;20538;-57
2024/01/07 11:18:23;;;;;;;2.10;1.00;;;;;;;-143.84;83.15;45163.31;5111038;28;20450;-57
2024/01/07 11:20:50;;;;;;;2.23;1.43;;;;;;;-143.84;81.71;45161.41;5110943;28;20478;-57